sensor_id;sensor_type;location;lat;lon;timestamp;P1;durP1;ratioP1;P2;durP2;ratioP2
67869;SDS011;54673;52.262;6.830;2023-05-07T00:01:07;3.37;;;2.90;;
67869;SDS011;54673;52.262;6.830;2023-05-07T00:03:33;3.53;;;2.88;;
67869;SDS011;54673;52.262;6.830;2023-05-07T00:05:58;3.10;;;2.73;;
67869;SDS011;54673;52.262;6.830;2023-05-07T00:08:24;3.37;;;2.70;;
67869;SDS011;54673;52.262;6.830;2023-05-07T00:10:49;3.57;;;2.90;;
67869;SDS011;54673;52.262;6.830;2023-05-07T00:13:15;3.67;;;3.00;;
67869;SDS011;54673;52.262;6.830;2023-05-07T00:15:40;3.63;;;2.80;;
67869;SDS011;54673;52.262;6.830;2023-05-07T00:18:06;3.27;;;2.97;;
67869;SDS011;54673;52.262;6.830;2023-05-07T00:20:31;3.27;;;2.97;;
67869;SDS011;54673;52.262;6.830;2023-05-07T00:22:57;3.58;;;3.00;;
67869;SDS011;54673;52.262;6.830;2023-05-07T00:25:22;3.13;;;2.80;;
67869;SDS011;54673;52.262;6.830;2023-05-07T00:27:48;2.83;;;2.50;;
67869;SDS011;54673;52.262;6.830;2023-05-07T00:30:14;3.57;;;3.27;;
67869;SDS011;54673;52.262;6.830;2023-05-07T00:32:39;3.25;;;2.95;;
67869;SDS011;54673;52.262;6.830;2023-05-07T00:35:05;2.57;;;2.37;;
67869;SDS011;54673;52.262;6.830;2023-05-07T00:37:32;3.30;;;2.60;;
67869;SDS011;54673;52.262;6.830;2023-05-07T00:39:57;3.03;;;2.73;;
67869;SDS011;54673;52.262;6.830;2023-05-07T00:42:23;3.15;;;2.85;;
67869;SDS011;54673;52.262;6.830;2023-05-07T00:44:49;3.37;;;3.07;;
67869;SDS011;54673;52.262;6.830;2023-05-07T00:47:15;2.85;;;2.55;;
67869;SDS011;54673;52.262;6.830;2023-05-07T00:49:42;3.47;;;2.80;;
67869;SDS011;54673;52.262;6.830;2023-05-07T00:52:09;2.93;;;2.63;;
67869;SDS011;54673;52.262;6.830;2023-05-07T00:54:36;3.17;;;2.60;;
67869;SDS011;54673;52.262;6.830;2023-05-07T00:57:02;3.10;;;2.80;;
67869;SDS011;54673;52.262;6.830;2023-05-07T00:59:28;2.60;;;2.40;;
67869;SDS011;54673;52.262;6.830;2023-05-07T01:01:55;5.47;;;2.60;;
67869;SDS011;54673;52.262;6.830;2023-05-07T01:04:21;2.87;;;2.60;;
67869;SDS011;54673;52.262;6.830;2023-05-07T01:06:46;3.20;;;2.70;;
67869;SDS011;54673;52.262;6.830;2023-05-07T01:09:12;4.03;;;2.60;;
67869;SDS011;54673;52.262;6.830;2023-05-07T01:11:38;4.47;;;2.72;;
67869;SDS011;54673;52.262;6.830;2023-05-07T01:14:05;4.00;;;3.13;;
67869;SDS011;54673;52.262;6.830;2023-05-07T01:16:31;3.42;;;2.90;;
67869;SDS011;54673;52.262;6.830;2023-05-07T01:18:57;3.72;;;2.78;;
67869;SDS011;54673;52.262;6.830;2023-05-07T01:21:24;3.70;;;2.73;;
67869;SDS011;54673;52.262;6.830;2023-05-07T01:23:54;3.58;;;2.83;;
67869;SDS011;54673;52.262;6.830;2023-05-07T01:26:20;3.50;;;2.80;;
67869;SDS011;54673;52.262;6.830;2023-05-07T01:28:46;2.77;;;2.57;;
67869;SDS011;54673;52.262;6.830;2023-05-07T01:31:12;3.53;;;2.90;;
67869;SDS011;54673;52.262;6.830;2023-05-07T01:33:39;3.43;;;3.13;;
67869;SDS011;54673;52.262;6.830;2023-05-07T01:36:07;3.35;;;3.05;;
67869;SDS011;54673;52.262;6.830;2023-05-07T01:38:36;4.28;;;3.13;;
67869;SDS011;54673;52.262;6.830;2023-05-07T01:41:04;3.57;;;3.13;;
67869;SDS011;54673;52.262;6.830;2023-05-07T01:43:30;3.90;;;3.50;;
67869;SDS011;54673;52.262;6.830;2023-05-07T01:45:55;3.92;;;3.47;;
67869;SDS011;54673;52.262;6.830;2023-05-07T01:48:24;5.60;;;4.07;;
67869;SDS011;54673;52.262;6.830;2023-05-07T01:50:50;4.82;;;3.65;;
67869;SDS011;54673;52.262;6.830;2023-05-07T01:53:16;4.53;;;4.03;;
67869;SDS011;54673;52.262;6.830;2023-05-07T01:55:42;4.47;;;3.70;;
67869;SDS011;54673;52.262;6.830;2023-05-07T01:58:07;4.13;;;3.40;;
67869;SDS011;54673;52.262;6.830;2023-05-07T02:00:33;6.63;;;3.90;;
67869;SDS011;54673;52.262;6.830;2023-05-07T02:02:59;5.22;;;4.13;;
67869;SDS011;54673;52.262;6.830;2023-05-07T02:05:24;5.70;;;4.23;;
67869;SDS011;54673;52.262;6.830;2023-05-07T02:07:50;5.93;;;4.50;;
67869;SDS011;54673;52.262;6.830;2023-05-07T02:10:15;7.43;;;3.90;;
67869;SDS011;54673;52.262;6.830;2023-05-07T02:12:41;4.50;;;3.60;;
67869;SDS011;54673;52.262;6.830;2023-05-07T02:15:07;5.40;;;4.18;;
67869;SDS011;54673;52.262;6.830;2023-05-07T02:17:33;4.32;;;3.92;;
67869;SDS011;54673;52.262;6.830;2023-05-07T02:19:59;7.13;;;4.57;;
67869;SDS011;54673;52.262;6.830;2023-05-07T02:22:24;8.93;;;4.70;;
67869;SDS011;54673;52.262;6.830;2023-05-07T02:24:50;6.33;;;4.80;;
67869;SDS011;54673;52.262;6.830;2023-05-07T02:27:16;5.43;;;4.45;;
67869;SDS011;54673;52.262;6.830;2023-05-07T02:29:41;5.87;;;4.77;;
67869;SDS011;54673;52.262;6.830;2023-05-07T02:32:07;7.73;;;4.80;;
67869;SDS011;54673;52.262;6.830;2023-05-07T02:34:32;6.63;;;4.53;;
67869;SDS011;54673;52.262;6.830;2023-05-07T02:36:58;6.27;;;4.60;;
67869;SDS011;54673;52.262;6.830;2023-05-07T02:39:23;5.60;;;4.50;;
67869;SDS011;54673;52.262;6.830;2023-05-07T02:41:49;5.20;;;4.30;;
67869;SDS011;54673;52.262;6.830;2023-05-07T02:44:15;5.80;;;4.60;;
67869;SDS011;54673;52.262;6.830;2023-05-07T02:46:40;6.22;;;5.05;;
67869;SDS011;54673;52.262;6.830;2023-05-07T02:49:06;6.60;;;5.10;;
67869;SDS011;54673;52.262;6.830;2023-05-07T02:51:31;6.90;;;5.00;;
67869;SDS011;54673;52.262;6.830;2023-05-07T02:53:57;7.63;;;5.35;;
67869;SDS011;54673;52.262;6.830;2023-05-07T02:56:26;6.87;;;5.53;;
67869;SDS011;54673;52.262;6.830;2023-05-07T02:58:51;7.45;;;5.20;;
67869;SDS011;54673;52.262;6.830;2023-05-07T03:01:17;7.90;;;5.57;;
67869;SDS011;54673;52.262;6.830;2023-05-07T03:03:43;7.18;;;5.45;;
67869;SDS011;54673;52.262;6.830;2023-05-07T03:06:09;6.77;;;5.07;;
67869;SDS011;54673;52.262;6.830;2023-05-07T03:08:35;6.47;;;5.00;;
67869;SDS011;54673;52.262;6.830;2023-05-07T03:11:01;6.70;;;5.15;;
67869;SDS011;54673;52.262;6.830;2023-05-07T03:13:27;8.33;;;5.37;;
67869;SDS011;54673;52.262;6.830;2023-05-07T03:15:52;8.75;;;6.07;;
67869;SDS011;54673;52.262;6.830;2023-05-07T03:18:18;7.50;;;5.23;;
67869;SDS011;54673;52.262;6.830;2023-05-07T03:20:43;8.90;;;5.53;;
67869;SDS011;54673;52.262;6.830;2023-05-07T03:23:09;8.85;;;6.13;;
67869;SDS011;54673;52.262;6.830;2023-05-07T03:25:35;8.50;;;6.13;;
67869;SDS011;54673;52.262;6.830;2023-05-07T03:28:00;9.68;;;6.07;;
67869;SDS011;54673;52.262;6.830;2023-05-07T03:30:26;9.63;;;5.53;;
67869;SDS011;54673;52.262;6.830;2023-05-07T03:32:51;8.87;;;6.20;;
67869;SDS011;54673;52.262;6.830;2023-05-07T03:35:17;10.32;;;6.25;;
67869;SDS011;54673;52.262;6.830;2023-05-07T03:37:43;7.90;;;6.00;;
67869;SDS011;54673;52.262;6.830;2023-05-07T03:40:08;7.63;;;5.83;;
67869;SDS011;54673;52.262;6.830;2023-05-07T03:42:35;10.23;;;5.90;;
67869;SDS011;54673;52.262;6.830;2023-05-07T03:45:00;9.63;;;5.95;;
67869;SDS011;54673;52.262;6.830;2023-05-07T03:47:26;11.53;;;5.80;;
67869;SDS011;54673;52.262;6.830;2023-05-07T03:49:52;8.63;;;6.20;;
67869;SDS011;54673;52.262;6.830;2023-05-07T03:52:18;8.57;;;6.30;;
67869;SDS011;54673;52.262;6.830;2023-05-07T03:54:48;7.63;;;6.05;;
67869;SDS011;54673;52.262;6.830;2023-05-07T03:57:14;8.20;;;5.90;;
67869;SDS011;54673;52.262;6.830;2023-05-07T03:59:40;8.65;;;6.38;;
67869;SDS011;54673;52.262;6.830;2023-05-07T04:02:05;10.77;;;7.00;;
67869;SDS011;54673;52.262;6.830;2023-05-07T04:04:31;8.07;;;6.43;;
67869;SDS011;54673;52.262;6.830;2023-05-07T04:06:57;9.60;;;6.72;;
67869;SDS011;54673;52.262;6.830;2023-05-07T04:09:24;8.40;;;6.13;;
67869;SDS011;54673;52.262;6.830;2023-05-07T04:11:50;8.25;;;6.13;;
67869;SDS011;54673;52.262;6.830;2023-05-07T04:14:15;11.33;;;7.63;;
67869;SDS011;54673;52.262;6.830;2023-05-07T04:16:41;9.00;;;6.72;;
67869;SDS011;54673;52.262;6.830;2023-05-07T04:19:06;9.30;;;6.40;;
67869;SDS011;54673;52.262;6.830;2023-05-07T04:21:32;9.37;;;6.70;;
67869;SDS011;54673;52.262;6.830;2023-05-07T04:23:57;10.00;;;7.13;;
67869;SDS011;54673;52.262;6.830;2023-05-07T04:26:23;7.80;;;5.87;;
67869;SDS011;54673;52.262;6.830;2023-05-07T04:28:49;7.82;;;6.32;;
67869;SDS011;54673;52.262;6.830;2023-05-07T04:31:14;8.10;;;6.40;;
67869;SDS011;54673;52.262;6.830;2023-05-07T04:33:40;9.43;;;7.05;;
67869;SDS011;54673;52.262;6.830;2023-05-07T04:36:06;9.53;;;7.03;;
67869;SDS011;54673;52.262;6.830;2023-05-07T04:38:31;10.15;;;6.60;;
67869;SDS011;54673;52.262;6.830;2023-05-07T04:41:02;10.03;;;6.87;;
67869;SDS011;54673;52.262;6.830;2023-05-07T04:43:28;10.07;;;6.80;;
67869;SDS011;54673;52.262;6.830;2023-05-07T04:45:53;9.67;;;7.20;;
67869;SDS011;54673;52.262;6.830;2023-05-07T04:48:19;9.70;;;7.10;;
67869;SDS011;54673;52.262;6.830;2023-05-07T04:50:49;9.82;;;6.75;;
67869;SDS011;54673;52.262;6.830;2023-05-07T04:53:15;9.57;;;7.23;;
67869;SDS011;54673;52.262;6.830;2023-05-07T04:55:41;11.23;;;7.13;;
67869;SDS011;54673;52.262;6.830;2023-05-07T04:58:07;9.15;;;6.35;;
67869;SDS011;54673;52.262;6.830;2023-05-07T05:00:32;10.70;;;7.80;;
67869;SDS011;54673;52.262;6.830;2023-05-07T05:02:58;9.25;;;7.03;;
67869;SDS011;54673;52.262;6.830;2023-05-07T05:05:24;8.93;;;6.80;;
67869;SDS011;54673;52.262;6.830;2023-05-07T05:07:50;9.95;;;7.18;;
67869;SDS011;54673;52.262;6.830;2023-05-07T05:10:16;9.15;;;6.30;;
67869;SDS011;54673;52.262;6.830;2023-05-07T05:12:42;8.97;;;6.30;;
67869;SDS011;54673;52.262;6.830;2023-05-07T05:15:08;10.27;;;7.13;;
67869;SDS011;54673;52.262;6.830;2023-05-07T05:17:35;10.40;;;7.10;;
67869;SDS011;54673;52.262;6.830;2023-05-07T05:20:01;10.50;;;6.57;;
67869;SDS011;54673;52.262;6.830;2023-05-07T05:22:27;11.23;;;7.47;;
67869;SDS011;54673;52.262;6.830;2023-05-07T05:24:55;10.75;;;7.60;;
67869;SDS011;54673;52.262;6.830;2023-05-07T05:27:21;9.40;;;7.27;;
67869;SDS011;54673;52.262;6.830;2023-05-07T05:29:47;9.80;;;7.03;;
67869;SDS011;54673;52.262;6.830;2023-05-07T05:32:12;9.27;;;6.93;;
67869;SDS011;54673;52.262;6.830;2023-05-07T05:34:38;10.67;;;7.83;;
67869;SDS011;54673;52.262;6.830;2023-05-07T05:37:03;10.60;;;7.30;;
67869;SDS011;54673;52.262;6.830;2023-05-07T05:39:29;10.73;;;7.70;;
67869;SDS011;54673;52.262;6.830;2023-05-07T05:41:54;11.60;;;7.23;;
67869;SDS011;54673;52.262;6.830;2023-05-07T05:44:20;12.23;;;7.38;;
67869;SDS011;54673;52.262;6.830;2023-05-07T05:46:45;11.70;;;7.93;;
67869;SDS011;54673;52.262;6.830;2023-05-07T05:49:11;10.17;;;7.37;;
67869;SDS011;54673;52.262;6.830;2023-05-07T05:51:37;11.20;;;7.68;;
67869;SDS011;54673;52.262;6.830;2023-05-07T05:54:02;12.33;;;8.07;;
67869;SDS011;54673;52.262;6.830;2023-05-07T05:56:28;12.80;;;7.82;;
67869;SDS011;54673;52.262;6.830;2023-05-07T05:58:53;10.87;;;7.30;;
67869;SDS011;54673;52.262;6.830;2023-05-07T06:01:19;10.87;;;7.80;;
67869;SDS011;54673;52.262;6.830;2023-05-07T06:03:45;11.13;;;7.60;;
67869;SDS011;54673;52.262;6.830;2023-05-07T06:06:10;10.70;;;7.50;;
67869;SDS011;54673;52.262;6.830;2023-05-07T06:08:36;13.45;;;7.45;;
67869;SDS011;54673;52.262;6.830;2023-05-07T06:11:01;13.37;;;7.43;;
67869;SDS011;54673;52.262;6.830;2023-05-07T06:13:27;11.00;;;8.43;;
67869;SDS011;54673;52.262;6.830;2023-05-07T06:15:53;12.80;;;8.33;;
67869;SDS011;54673;52.262;6.830;2023-05-07T06:18:18;10.60;;;7.67;;
67869;SDS011;54673;52.262;6.830;2023-05-07T06:20:44;11.65;;;7.80;;
67869;SDS011;54673;52.262;6.830;2023-05-07T06:23:09;12.50;;;7.90;;
67869;SDS011;54673;52.262;6.830;2023-05-07T06:25:35;12.90;;;8.17;;
67869;SDS011;54673;52.262;6.830;2023-05-07T06:28:01;10.57;;;7.80;;
67869;SDS011;54673;52.262;6.830;2023-05-07T06:30:26;11.40;;;8.00;;
67869;SDS011;54673;52.262;6.830;2023-05-07T06:32:52;11.77;;;7.93;;
67869;SDS011;54673;52.262;6.830;2023-05-07T06:35:17;13.30;;;7.20;;
67869;SDS011;54673;52.262;6.830;2023-05-07T06:37:43;14.70;;;8.20;;
67869;SDS011;54673;52.262;6.830;2023-05-07T06:40:09;14.48;;;8.57;;
67869;SDS011;54673;52.262;6.830;2023-05-07T06:42:35;12.77;;;8.33;;
67869;SDS011;54673;52.262;6.830;2023-05-07T06:45:02;11.85;;;8.20;;
67869;SDS011;54673;52.262;6.830;2023-05-07T06:47:27;13.73;;;8.73;;
67869;SDS011;54673;52.262;6.830;2023-05-07T06:49:53;12.37;;;8.70;;
67869;SDS011;54673;52.262;6.830;2023-05-07T06:52:19;10.93;;;7.47;;
67869;SDS011;54673;52.262;6.830;2023-05-07T06:54:44;10.90;;;7.33;;
67869;SDS011;54673;52.262;6.830;2023-05-07T06:57:10;9.03;;;6.73;;
67869;SDS011;54673;52.262;6.830;2023-05-07T06:59:35;8.43;;;6.35;;
67869;SDS011;54673;52.262;6.830;2023-05-07T07:02:01;9.97;;;6.67;;
67869;SDS011;54673;52.262;6.830;2023-05-07T07:04:27;11.82;;;7.10;;
67869;SDS011;54673;52.262;6.830;2023-05-07T07:06:53;9.67;;;7.13;;
67869;SDS011;54673;52.262;6.830;2023-05-07T07:09:19;9.18;;;6.45;;
67869;SDS011;54673;52.262;6.830;2023-05-07T07:11:44;10.00;;;7.13;;
67869;SDS011;54673;52.262;6.830;2023-05-07T07:14:10;10.63;;;6.57;;
67869;SDS011;54673;52.262;6.830;2023-05-07T07:16:36;12.27;;;6.80;;
67869;SDS011;54673;52.262;6.830;2023-05-07T07:19:01;8.93;;;6.73;;
67869;SDS011;54673;52.262;6.830;2023-05-07T07:21:27;10.23;;;6.72;;
67869;SDS011;54673;52.262;6.830;2023-05-07T07:23:52;8.87;;;6.43;;
67869;SDS011;54673;52.262;6.830;2023-05-07T07:26:18;10.63;;;6.65;;
67869;SDS011;54673;52.262;6.830;2023-05-07T07:28:44;9.67;;;6.20;;
67869;SDS011;54673;52.262;6.830;2023-05-07T07:31:10;8.23;;;6.40;;
67869;SDS011;54673;52.262;6.830;2023-05-07T07:33:36;9.50;;;6.50;;
67869;SDS011;54673;52.262;6.830;2023-05-07T07:36:02;8.45;;;6.25;;
67869;SDS011;54673;52.262;6.830;2023-05-07T07:38:27;9.87;;;6.60;;
67869;SDS011;54673;52.262;6.830;2023-05-07T07:40:53;11.50;;;5.60;;
67869;SDS011;54673;52.262;6.830;2023-05-07T07:43:18;7.60;;;5.70;;
67869;SDS011;54673;52.262;6.830;2023-05-07T07:45:44;10.07;;;6.07;;
67869;SDS011;54673;52.262;6.830;2023-05-07T07:48:10;9.77;;;5.50;;
67869;SDS011;54673;52.262;6.830;2023-05-07T07:50:36;8.32;;;5.50;;
67869;SDS011;54673;52.262;6.830;2023-05-07T07:53:02;7.93;;;5.87;;
67869;SDS011;54673;52.262;6.830;2023-05-07T07:55:28;8.52;;;5.65;;
67869;SDS011;54673;52.262;6.830;2023-05-07T07:57:53;7.80;;;5.63;;
67869;SDS011;54673;52.262;6.830;2023-05-07T08:00:19;9.30;;;5.65;;
67869;SDS011;54673;52.262;6.830;2023-05-07T08:02:45;8.07;;;5.97;;
67869;SDS011;54673;52.262;6.830;2023-05-07T08:05:10;7.47;;;5.57;;
67869;SDS011;54673;52.262;6.830;2023-05-07T08:07:36;9.97;;;5.47;;
67869;SDS011;54673;52.262;6.830;2023-05-07T08:10:01;8.67;;;5.60;;
67869;SDS011;54673;52.262;6.830;2023-05-07T08:12:27;8.20;;;5.15;;
67869;SDS011;54673;52.262;6.830;2023-05-07T08:14:53;8.03;;;5.30;;
67869;SDS011;54673;52.262;6.830;2023-05-07T08:17:18;7.47;;;5.25;;
67869;SDS011;54673;52.262;6.830;2023-05-07T08:19:47;7.50;;;5.43;;
67869;SDS011;54673;52.262;6.830;2023-05-07T08:22:12;7.70;;;4.90;;
67869;SDS011;54673;52.262;6.830;2023-05-07T08:24:38;6.63;;;4.90;;
67869;SDS011;54673;52.262;6.830;2023-05-07T08:27:04;6.73;;;5.10;;
67869;SDS011;54673;52.262;6.830;2023-05-07T08:29:30;6.90;;;5.03;;
67869;SDS011;54673;52.262;6.830;2023-05-07T08:31:56;7.67;;;5.50;;
67869;SDS011;54673;52.262;6.830;2023-05-07T08:34:21;6.10;;;4.93;;
67869;SDS011;54673;52.262;6.830;2023-05-07T08:36:47;7.57;;;5.20;;
67869;SDS011;54673;52.262;6.830;2023-05-07T08:39:14;7.55;;;5.47;;
67869;SDS011;54673;52.262;6.830;2023-05-07T08:41:41;7.30;;;5.00;;
67869;SDS011;54673;52.262;6.830;2023-05-07T08:44:11;8.55;;;5.50;;
67869;SDS011;54673;52.262;6.830;2023-05-07T08:46:38;6.72;;;5.40;;
67869;SDS011;54673;52.262;6.830;2023-05-07T08:49:06;6.07;;;4.50;;
67869;SDS011;54673;52.262;6.830;2023-05-07T08:51:32;6.32;;;4.95;;
67869;SDS011;54673;52.262;6.830;2023-05-07T08:53:58;7.80;;;5.32;;
67869;SDS011;54673;52.262;6.830;2023-05-07T08:56:26;5.97;;;4.83;;
67869;SDS011;54673;52.262;6.830;2023-05-07T08:58:51;8.17;;;5.00;;
67869;SDS011;54673;52.262;6.830;2023-05-07T09:01:21;6.77;;;4.97;;
67869;SDS011;54673;52.262;6.830;2023-05-07T09:03:46;6.10;;;5.20;;
67869;SDS011;54673;52.262;6.830;2023-05-07T09:06:12;6.47;;;4.87;;
67869;SDS011;54673;52.262;6.830;2023-05-07T09:08:38;6.28;;;4.75;;
67869;SDS011;54673;52.262;6.830;2023-05-07T09:11:04;6.50;;;4.87;;
67869;SDS011;54673;52.262;6.830;2023-05-07T09:13:29;6.97;;;5.00;;
67869;SDS011;54673;52.262;6.830;2023-05-07T09:15:55;6.23;;;5.07;;
67869;SDS011;54673;52.262;6.830;2023-05-07T09:18:23;6.45;;;4.82;;
67869;SDS011;54673;52.262;6.830;2023-05-07T09:20:49;6.90;;;4.60;;
67869;SDS011;54673;52.262;6.830;2023-05-07T09:23:15;5.73;;;4.53;;
67869;SDS011;54673;52.262;6.830;2023-05-07T09:25:41;5.63;;;4.50;;
67869;SDS011;54673;52.262;6.830;2023-05-07T09:28:07;5.40;;;4.73;;
67869;SDS011;54673;52.262;6.830;2023-05-07T09:30:34;6.10;;;4.68;;
67869;SDS011;54673;52.262;6.830;2023-05-07T09:33:01;6.20;;;4.40;;
67869;SDS011;54673;52.262;6.830;2023-05-07T09:35:28;5.93;;;4.43;;
67869;SDS011;54673;52.262;6.830;2023-05-07T09:37:58;6.05;;;4.78;;
67869;SDS011;54673;52.262;6.830;2023-05-07T09:40:26;6.13;;;4.83;;
67869;SDS011;54673;52.262;6.830;2023-05-07T09:42:53;6.15;;;5.03;;
67869;SDS011;54673;52.262;6.830;2023-05-07T09:45:22;5.80;;;4.30;;
67869;SDS011;54673;52.262;6.830;2023-05-07T09:47:53;5.93;;;4.67;;
67869;SDS011;54673;52.262;6.830;2023-05-07T09:50:27;6.35;;;4.20;;
67869;SDS011;54673;52.262;6.830;2023-05-07T09:52:55;5.30;;;4.63;;
67869;SDS011;54673;52.262;6.830;2023-05-07T09:55:22;5.15;;;4.20;;
67869;SDS011;54673;52.262;6.830;2023-05-07T09:57:51;5.05;;;4.05;;
67869;SDS011;54673;52.262;6.830;2023-05-07T10:00:18;5.07;;;4.20;;
67869;SDS011;54673;52.262;6.830;2023-05-07T10:02:49;6.32;;;4.72;;
67869;SDS011;54673;52.262;6.830;2023-05-07T10:05:21;6.45;;;4.30;;
67869;SDS011;54673;52.262;6.830;2023-05-07T10:07:47;6.67;;;3.93;;
67869;SDS011;54673;52.262;6.830;2023-05-07T10:10:13;6.18;;;4.75;;
67869;SDS011;54673;52.262;6.830;2023-05-07T10:12:40;7.50;;;4.20;;
67869;SDS011;54673;52.262;6.830;2023-05-07T10:15:09;10.03;;;4.33;;
67869;SDS011;54673;52.262;6.830;2023-05-07T10:17:36;14.80;;;4.88;;
67869;SDS011;54673;52.262;6.830;2023-05-07T10:20:03;9.37;;;4.73;;
67869;SDS011;54673;52.262;6.830;2023-05-07T10:22:31;12.70;;;4.00;;
67869;SDS011;54673;52.262;6.830;2023-05-07T10:25:03;16.40;;;4.47;;
67869;SDS011;54673;52.262;6.830;2023-05-07T10:27:33;5.37;;;4.13;;
67869;SDS011;54673;52.262;6.830;2023-05-07T10:33:10;10.77;;;4.25;;
67869;SDS011;54673;52.262;6.830;2023-05-07T10:35:41;6.63;;;4.17;;
67869;SDS011;54673;52.262;6.830;2023-05-07T10:38:08;5.65;;;4.10;;
67869;SDS011;54673;52.262;6.830;2023-05-07T10:40:34;7.20;;;4.60;;
67869;SDS011;54673;52.262;6.830;2023-05-07T10:43:01;7.27;;;4.47;;
67869;SDS011;54673;52.262;6.830;2023-05-07T10:45:30;5.03;;;4.10;;
67869;SDS011;54673;52.262;6.830;2023-05-07T10:50:40;7.18;;;4.03;;
67869;SDS011;54673;52.262;6.830;2023-05-07T10:55:51;10.30;;;4.20;;
67869;SDS011;54673;52.262;6.830;2023-05-07T10:58:36;5.10;;;3.80;;
67869;SDS011;54673;52.262;6.830;2023-05-07T11:01:02;5.28;;;4.40;;
67869;SDS011;54673;52.262;6.830;2023-05-07T11:03:28;5.82;;;4.40;;
67869;SDS011;54673;52.262;6.830;2023-05-07T11:06:08;6.70;;;4.17;;
67869;SDS011;54673;52.262;6.830;2023-05-07T11:17:07;4.82;;;4.32;;
67869;SDS011;54673;52.262;6.830;2023-05-07T11:19:52;4.87;;;3.67;;
67869;SDS011;54673;52.262;6.830;2023-05-07T11:24:57;4.53;;;4.13;;
67869;SDS011;54673;52.262;6.830;2023-05-07T11:27:25;6.20;;;4.40;;
67869;SDS011;54673;52.262;6.830;2023-05-07T11:29:51;8.05;;;4.35;;
67869;SDS011;54673;52.262;6.830;2023-05-07T11:32:24;5.85;;;4.32;;
67869;SDS011;54673;52.262;6.830;2023-05-07T11:34:51;7.60;;;4.40;;
67869;SDS011;54673;52.262;6.830;2023-05-07T11:37:17;5.43;;;4.03;;
67869;SDS011;54673;52.262;6.830;2023-05-07T11:39:43;6.38;;;4.05;;
67869;SDS011;54673;52.262;6.830;2023-05-07T11:42:28;6.03;;;4.03;;
67869;SDS011;54673;52.262;6.830;2023-05-07T11:44:55;5.20;;;3.92;;
67869;SDS011;54673;52.262;6.830;2023-05-07T11:47:20;4.57;;;3.70;;
67869;SDS011;54673;52.262;6.830;2023-05-07T11:49:50;5.35;;;3.47;;
67869;SDS011;54673;52.262;6.830;2023-05-07T11:52:18;5.13;;;4.07;;
67869;SDS011;54673;52.262;6.830;2023-05-07T11:54:48;5.72;;;3.67;;
67869;SDS011;54673;52.262;6.830;2023-05-07T11:57:15;4.15;;;3.60;;
67869;SDS011;54673;52.262;6.830;2023-05-07T11:59:41;7.50;;;3.67;;
67869;SDS011;54673;52.262;6.830;2023-05-07T12:02:09;5.85;;;3.67;;
67869;SDS011;54673;52.262;6.830;2023-05-07T12:04:35;5.32;;;3.80;;
67869;SDS011;54673;52.262;6.830;2023-05-07T12:07:00;5.13;;;3.50;;
67869;SDS011;54673;52.262;6.830;2023-05-07T12:09:26;5.27;;;3.83;;
67869;SDS011;54673;52.262;6.830;2023-05-07T12:11:52;5.60;;;3.60;;
67869;SDS011;54673;52.262;6.830;2023-05-07T12:14:18;7.57;;;3.67;;
67869;SDS011;54673;52.262;6.830;2023-05-07T12:16:43;8.33;;;3.83;;
67869;SDS011;54673;52.262;6.830;2023-05-07T12:19:10;8.65;;;4.07;;
67869;SDS011;54673;52.262;6.830;2023-05-07T12:21:39;7.37;;;3.90;;
67869;SDS011;54673;52.262;6.830;2023-05-07T12:24:05;6.53;;;3.70;;
67869;SDS011;54673;52.262;6.830;2023-05-07T12:26:31;4.85;;;3.80;;
67869;SDS011;54673;52.262;6.830;2023-05-07T12:28:57;7.47;;;3.73;;
67869;SDS011;54673;52.262;6.830;2023-05-07T12:31:25;14.10;;;3.70;;
67869;SDS011;54673;52.262;6.830;2023-05-07T12:33:51;6.87;;;3.50;;
67869;SDS011;54673;52.262;6.830;2023-05-07T12:36:16;5.70;;;3.50;;
67869;SDS011;54673;52.262;6.830;2023-05-07T12:38:42;7.97;;;3.53;;
67869;SDS011;54673;52.262;6.830;2023-05-07T12:41:08;6.23;;;3.70;;
67869;SDS011;54673;52.262;6.830;2023-05-07T12:43:35;9.13;;;3.85;;
67869;SDS011;54673;52.262;6.830;2023-05-07T12:46:01;12.48;;;3.90;;
67869;SDS011;54673;52.262;6.830;2023-05-07T12:48:32;13.43;;;3.90;;
67869;SDS011;54673;52.262;6.830;2023-05-07T12:50:59;7.20;;;3.42;;
67869;SDS011;54673;52.262;6.830;2023-05-07T12:53:26;9.50;;;3.83;;
67869;SDS011;54673;52.262;6.830;2023-05-07T12:55:53;9.65;;;3.58;;
67869;SDS011;54673;52.262;6.830;2023-05-07T12:58:21;5.85;;;3.67;;
67869;SDS011;54673;52.262;6.830;2023-05-07T13:00:52;7.90;;;3.70;;
67869;SDS011;54673;52.262;6.830;2023-05-07T13:03:37;5.78;;;3.40;;
67869;SDS011;54673;52.262;6.830;2023-05-07T13:06:09;8.02;;;3.50;;
67869;SDS011;54673;52.262;6.830;2023-05-07T13:08:37;5.27;;;3.70;;
67869;SDS011;54673;52.262;6.830;2023-05-07T13:11:10;7.47;;;3.50;;
67869;SDS011;54673;52.262;6.830;2023-05-07T13:13:36;12.10;;;3.70;;
67869;SDS011;54673;52.262;6.830;2023-05-07T13:16:04;11.93;;;4.03;;
67869;SDS011;54673;52.262;6.830;2023-05-07T13:18:31;11.75;;;3.63;;
67869;SDS011;54673;52.262;6.830;2023-05-07T13:20:57;5.43;;;3.33;;
67869;SDS011;54673;52.262;6.830;2023-05-07T13:23:23;5.27;;;3.07;;
67869;SDS011;54673;52.262;6.830;2023-05-07T13:25:49;6.05;;;3.53;;
67869;SDS011;54673;52.262;6.830;2023-05-07T13:28:15;7.53;;;3.67;;
67869;SDS011;54673;52.262;6.830;2023-05-07T13:30:41;6.80;;;3.35;;
67869;SDS011;54673;52.262;6.830;2023-05-07T13:33:07;6.10;;;3.03;;
67869;SDS011;54673;52.262;6.830;2023-05-07T13:35:33;6.93;;;3.50;;
67869;SDS011;54673;52.262;6.830;2023-05-07T13:37:59;5.15;;;3.00;;
67869;SDS011;54673;52.262;6.830;2023-05-07T13:40:25;5.83;;;3.10;;
67869;SDS011;54673;52.262;6.830;2023-05-07T13:42:51;8.35;;;3.40;;
67869;SDS011;54673;52.262;6.830;2023-05-07T13:45:17;6.93;;;3.60;;
67869;SDS011;54673;52.262;6.830;2023-05-07T13:47:43;5.33;;;2.93;;
67869;SDS011;54673;52.262;6.830;2023-05-07T13:50:10;6.97;;;3.53;;
67869;SDS011;54673;52.262;6.830;2023-05-07T13:52:42;6.97;;;3.30;;
67869;SDS011;54673;52.262;6.830;2023-05-07T13:55:10;4.23;;;3.30;;
67869;SDS011;54673;52.262;6.830;2023-05-07T13:57:36;9.57;;;3.40;;
67869;SDS011;54673;52.262;6.830;2023-05-07T14:00:03;5.57;;;3.40;;
67869;SDS011;54673;52.262;6.830;2023-05-07T14:02:30;4.93;;;2.80;;
67869;SDS011;54673;52.262;6.830;2023-05-07T14:04:56;9.15;;;3.70;;
67869;SDS011;54673;52.262;6.830;2023-05-07T14:07:21;6.07;;;3.37;;
67869;SDS011;54673;52.262;6.830;2023-05-07T14:09:47;4.40;;;3.07;;
67869;SDS011;54673;52.262;6.830;2023-05-07T14:12:12;6.38;;;3.58;;
67869;SDS011;54673;52.262;6.830;2023-05-07T14:14:38;4.87;;;3.50;;
67869;SDS011;54673;52.262;6.830;2023-05-07T14:17:03;4.43;;;3.17;;
67869;SDS011;54673;52.262;6.830;2023-05-07T14:19:29;5.40;;;2.70;;
67869;SDS011;54673;52.262;6.830;2023-05-07T14:21:54;4.67;;;3.17;;
67869;SDS011;54673;52.262;6.830;2023-05-07T14:24:20;4.15;;;3.33;;
67869;SDS011;54673;52.262;6.830;2023-05-07T14:26:45;5.87;;;3.10;;
67869;SDS011;54673;52.262;6.830;2023-05-07T14:29:11;3.70;;;3.30;;
67869;SDS011;54673;52.262;6.830;2023-05-07T14:31:37;4.45;;;3.47;;
67869;SDS011;54673;52.262;6.830;2023-05-07T14:34:02;7.53;;;3.23;;
67869;SDS011;54673;52.262;6.830;2023-05-07T14:36:28;6.88;;;3.42;;
67869;SDS011;54673;52.262;6.830;2023-05-07T14:38:55;4.13;;;3.20;;
67869;SDS011;54673;52.262;6.830;2023-05-07T14:41:23;4.82;;;3.53;;
67869;SDS011;54673;52.262;6.830;2023-05-07T14:43:49;4.97;;;3.23;;
67869;SDS011;54673;52.262;6.830;2023-05-07T14:46:15;4.72;;;3.22;;
67869;SDS011;54673;52.262;6.830;2023-05-07T14:48:43;4.87;;;3.10;;
67869;SDS011;54673;52.262;6.830;2023-05-07T14:51:10;3.97;;;2.90;;
67869;SDS011;54673;52.262;6.830;2023-05-07T14:53:35;4.68;;;3.28;;
67869;SDS011;54673;52.262;6.830;2023-05-07T14:56:01;3.63;;;3.23;;
67869;SDS011;54673;52.262;6.830;2023-05-07T14:58:27;4.20;;;3.27;;
67869;SDS011;54673;52.262;6.830;2023-05-07T15:00:52;6.03;;;3.47;;